Time;durP1;ratioP1;P1;durP2;ratioP2;P2;SDS_P1;SDS_P2;PMS_P1;PMS_P2;Temp;Humidity;BMP_temperature;BMP_pressure;BME280_temperature;BME280_humidity;BME280_pressure;Samples;Min_cycle;Max_cycle;Signal;HPM_P1;HPM_P2
2021/05/15 00:02:16;;;;;;;13.97;11.43;;;;;;;;;;5073757;28;20174;-80
2021/05/15 00:04:42;;;;;;;13.87;11.47;;;;;;;;;;5073946;28;20167;-80
2021/05/15 00:07:07;;;;;;;14.10;12.00;;;;;;;;;;5073612;28;20171;-80
2021/05/15 00:09:32;;;;;;;12.30;11.00;;;;;;;;;;5073631;28;20178;-80
2021/05/15 00:11:58;;;;;;;12.20;10.83;;;;;;;;;;5073937;28;20233;-80
2021/05/15 00:14:23;;;;;;;13.03;11.20;;;;;;;;;;5073973;28;20171;-80
2021/05/15 00:16:49;;;;;;;12.17;10.87;;;;;;;;;;5073105;28;20218;-80
2021/05/15 00:19:14;;;;;;;14.27;11.40;;;;;;;;;;5073806;28;20191;-80
2021/05/15 00:21:39;;;;;;;15.30;11.20;;;;;;;;;;5074342;28;20518;-80
2021/05/15 00:24:05;;;;;;;13.40;11.43;;;;;;;;;;5074629;28;20167;-80
2021/05/15 00:26:30;;;;;;;14.00;10.93;;;;;;;;;;5077353;28;20632;-80
2021/05/15 00:28:56;;;;;;;14.57;11.53;;;;;;;;;;5077087;28;20171;-80
2021/05/15 00:31:21;;;;;;;12.93;11.23;;;;;;;;;;5077404;28;20167;-80
2021/05/15 00:33:46;;;;;;;14.43;11.43;;;;;;;;;;5077190;28;20533;-80
2021/05/15 00:36:12;;;;;;;13.93;11.57;;;;;;;;;;5077158;28;20664;-80
2021/05/15 00:38:37;;;;;;;15.80;11.53;;;;;;;;;;5076730;28;20171;-80
2021/05/15 00:41:03;;;;;;;12.60;10.80;;;;;;;;;;5077119;28;20176;-80
2021/05/15 00:43:29;;;;;;;14.13;11.47;;;;;;;;;;5077029;28;20171;-80
2021/05/15 00:45:54;;;;;;;13.47;10.97;;;;;;;;;;5077288;28;20197;-80
2021/05/15 00:48:19;;;;;;;13.90;11.87;;;;;;;;;;5077534;28;20171;-81
2021/05/15 00:50:45;;;;;;;15.17;11.67;;;;;;;;;;5076988;28;20506;-80
2021/05/15 00:53:10;;;;;;;12.90;10.63;;;;;;;;;;5076939;28;20163;-80
2021/05/15 00:55:36;;;;;;;14.80;11.27;;;;;;;;;;5077093;28;20163;-80
2021/05/15 00:58:02;;;;;;;12.60;11.30;;;;;;;;;;5077014;28;20171;-80
2021/05/15 01:00:28;;;;;;;13.93;11.30;;;;;;;;;;5058792;28;20256;-80
2021/05/15 01:02:53;;;;;;;13.77;11.70;;;;;;;;;;5076381;28;20183;-80
2021/05/15 01:05:19;;;;;;;14.60;11.53;;;;;;;;;;5076659;28;20167;-80
2021/05/15 01:07:45;;;;;;;13.80;11.53;;;;;;;;;;5076469;28;20167;-80
2021/05/15 01:10:11;;;;;;;12.50;11.20;;;;;;;;;;5076331;28;20175;-80
2021/05/15 01:12:43;;;;;;;13.30;11.60;;;;;;;;;;5076584;28;20257;-80
2021/05/15 01:15:09;;;;;;;13.53;10.80;;;;;;;;;;5076491;28;20225;-80
2021/05/15 01:17:34;;;;;;;11.63;10.40;;;;;;;;;;5076427;28;20685;-80
2021/05/15 01:19:59;;;;;;;12.50;10.50;;;;;;;;;;5076647;28;20195;-80
2021/05/15 01:22:25;;;;;;;11.77;10.20;;;;;;;;;;5076663;28;20220;-80
2021/05/15 01:24:50;;;;;;;11.23;10.13;;;;;;;;;;5076606;28;20171;-80
2021/05/15 01:27:15;;;;;;;12.90;10.70;;;;;;;;;;5076367;28;20178;-80
2021/05/15 01:29:41;;;;;;;11.63;10.30;;;;;;;;;;5076775;28;20174;-80
2021/05/15 01:32:07;;;;;;;11.83;10.60;;;;;;;;;;5076199;28;20248;-80
2021/05/15 01:34:32;;;;;;;11.43;10.23;;;;;;;;;;5076864;28;20211;-80
2021/05/15 01:36:58;;;;;;;11.03;9.83;;;;;;;;;;5074999;28;20258;-80
2021/05/15 01:39:23;;;;;;;12.13;9.70;;;;;;;;;;5075925;28;20195;-80
2021/05/15 01:41:49;;;;;;;10.10;9.03;;;;;;;;;;5076003;28;20184;-80
2021/05/15 01:44:16;;;;;;;10.63;9.00;;;;;;;;;;5076359;28;20167;-80
2021/05/15 01:46:41;;;;;;;10.60;9.47;;;;;;;;;;5075991;28;20292;-80
2021/05/15 01:49:06;;;;;;;9.30;8.40;;;;;;;;;;5075618;28;20175;-80
2021/05/15 01:51:32;;;;;;;9.33;8.30;;;;;;;;;;5075811;28;20171;-80
2021/05/15 01:53:57;;;;;;;9.40;8.50;;;;;;;;;;5075817;28;20227;-80
2021/05/15 01:56:24;;;;;;;9.43;8.53;;;;;;;;;;5075424;28;20172;-80
2021/05/15 01:58:50;;;;;;;9.03;8.13;;;;;;;;;;5075333;28;20167;-80
2021/05/15 02:01:15;;;;;;;9.60;8.63;;;;;;;;;;5075662;28;20250;-80
2021/05/15 02:03:41;;;;;;;9.27;8.10;;;;;;;;;;5075719;28;20264;-80
2021/05/15 02:06:07;;;;;;;9.87;8.37;;;;;;;;;;5075242;28;20172;-80
2021/05/15 02:08:32;;;;;;;9.30;8.40;;;;;;;;;;5075471;28;20163;-80
2021/05/15 02:10:58;;;;;;;9.07;8.17;;;;;;;;;;5075463;28;20191;-80
2021/05/15 02:13:26;;;;;;;9.27;8.30;;;;;;;;;;5075343;28;20224;-80
2021/05/15 02:15:51;;;;;;;8.97;8.13;;;;;;;;;;5075324;28;20175;-80
2021/05/15 02:18:16;;;;;;;9.33;8.43;;;;;;;;;;5075464;28;20230;-80
2021/05/15 02:20:42;;;;;;;11.37;8.37;;;;;;;;;;5075226;28;20207;-80
2021/05/15 02:23:09;;;;;;;9.70;8.73;;;;;;;;;;5075283;28;20186;-80
2021/05/15 02:25:34;;;;;;;9.77;8.73;;;;;;;;;;5074794;28;20209;-80
2021/05/15 02:28:00;;;;;;;8.93;7.93;;;;;;;;;;5075056;28;20209;-80
2021/05/15 02:30:26;;;;;;;8.90;8.07;;;;;;;;;;5075013;28;20190;-80
2021/05/15 02:32:51;;;;;;;9.20;8.30;;;;;;;;;;5075126;28;20175;-80
2021/05/15 02:35:17;;;;;;;8.90;8.00;;;;;;;;;;5074614;28;20289;-80
2021/05/15 02:37:42;;;;;;;9.03;8.23;;;;;;;;;;5074956;28;20564;-80
2021/05/15 02:40:08;;;;;;;9.30;8.40;;;;;;;;;;5074572;28;20202;-80
2021/05/15 02:42:34;;;;;;;8.63;7.70;;;;;;;;;;5074783;28;20182;-80
2021/05/15 02:44:59;;;;;;;9.27;8.00;;;;;;;;;;5074806;28;20203;-80
2021/05/15 02:47:25;;;;;;;8.90;8.10;;;;;;;;;;5075010;28;20171;-80
2021/05/15 02:49:50;;;;;;;10.70;8.40;;;;;;;;;;5074635;28;20183;-80
2021/05/15 02:52:16;;;;;;;8.13;7.43;;;;;;;;;;5074616;28;20245;-80
2021/05/15 02:54:41;;;;;;;8.13;7.43;;;;;;;;;;5074173;28;20576;-80
2021/05/15 02:57:07;;;;;;;9.00;8.10;;;;;;;;;;5074650;28;20172;-80
2021/05/15 02:59:32;;;;;;;11.03;8.00;;;;;;;;;;5074156;28;20730;-80
2021/05/15 03:01:58;;;;;;;9.03;8.23;;;;;;;;;;5074385;28;20175;-80
2021/05/15 03:04:23;;;;;;;9.20;8.20;;;;;;;;;;5074369;28;20217;-80
2021/05/15 03:06:48;;;;;;;9.00;8.20;;;;;;;;;;5074355;28;20171;-80
2021/05/15 03:09:14;;;;;;;8.60;7.80;;;;;;;;;;5074574;28;20175;-80
2021/05/15 03:11:39;;;;;;;8.07;7.37;;;;;;;;;;5073997;28;20610;-80
2021/05/15 03:14:04;;;;;;;8.97;8.07;;;;;;;;;;5074525;28;20227;-80
2021/05/15 03:16:31;;;;;;;9.23;8.10;;;;;;;;;;5073861;28;20259;-80
2021/05/15 03:18:56;;;;;;;9.20;8.30;;;;;;;;;;5074558;28;20160;-80
2021/05/15 03:21:21;;;;;;;8.60;7.80;;;;;;;;;;5073852;28;20176;-80
2021/05/15 03:23:47;;;;;;;9.07;7.90;;;;;;;;;;5074409;28;20171;-80
2021/05/15 03:26:12;;;;;;;8.83;7.93;;;;;;;;;;5074375;28;20186;-80
2021/05/15 03:28:37;;;;;;;8.47;7.77;;;;;;;;;;5074596;28;20592;-80
2021/05/15 03:31:03;;;;;;;9.17;8.33;;;;;;;;;;5074203;28;20167;-80
2021/05/15 03:33:28;;;;;;;9.40;8.50;;;;;;;;;;5074119;28;20191;-80
2021/05/15 03:35:53;;;;;;;8.20;7.40;;;;;;;;;;5073773;28;20529;-80
2021/05/15 03:38:19;;;;;;;8.83;7.07;;;;;;;;;;5073631;28;20167;-80
2021/05/15 03:40:44;;;;;;;8.20;7.00;;;;;;;;;;5073645;28;20194;-80
2021/05/15 03:43:09;;;;;;;7.10;6.50;;;;;;;;;;5073881;28;20270;-80
2021/05/15 03:45:35;;;;;;;7.00;6.40;;;;;;;;;;5073638;28;20167;-80
2021/05/15 03:48:00;;;;;;;7.00;6.30;;;;;;;;;;5073823;28;20498;-79
2021/05/15 03:50:26;;;;;;;11.30;6.63;;;;;;;;;;5073588;28;20702;-79
2021/05/15 03:52:52;;;;;;;6.60;6.00;;;;;;;;;;5074210;28;20613;-79
2021/05/15 03:55:17;;;;;;;7.43;6.10;;;;;;;;;;5073570;28;20175;-79
2021/05/15 03:57:43;;;;;;;7.17;6.53;;;;;;;;;;5074282;28;20175;-80
2021/05/15 04:00:09;;;;;;;7.33;6.13;;;;;;;;;;5076669;28;20260;-80
2021/05/15 04:02:37;;;;;;;5.87;5.37;;;;;;;;;;5077881;28;20202;-80
2021/05/15 04:05:02;;;;;;;5.90;5.40;;;;;;;;;;5078376;28;20167;-81
2021/05/15 04:07:28;;;;;;;5.53;5.00;;;;;;;;;;5078346;28;20213;-81
2021/05/15 04:09:53;;;;;;;5.60;5.10;;;;;;;;;;5077783;28;20167;-81
2021/05/15 04:12:18;;;;;;;8.00;4.97;;;;;;;;;;5077448;28;20183;-81
2021/05/15 04:14:48;;;;;;;4.97;4.50;;;;;;;;;;5077387;28;20171;-81
2021/05/15 04:17:18;;;;;;;4.75;4.35;;;;;;;;;;5077245;28;20227;-81
2021/05/15 04:19:43;;;;;;;4.75;4.25;;;;;;;;;;5078095;28;20736;-81
2021/05/15 04:22:08;;;;;;;4.82;4.20;;;;;;;;;;5077276;28;20270;-82
2021/05/15 04:24:34;;;;;;;4.28;3.97;;;;;;;;;;5077531;28;20614;-82
2021/05/15 04:27:01;;;;;;;4.22;3.88;;;;;;;;;;5077429;28;20194;-82
2021/05/15 04:29:27;;;;;;;4.50;4.20;;;;;;;;;;5077456;28;20580;-82
2021/05/15 04:31:54;;;;;;;4.22;3.83;;;;;;;;;;5077046;28;20199;-82
2021/05/15 04:34:20;;;;;;;3.80;3.50;;;;;;;;;;5076926;28;20183;-82
2021/05/15 04:36:45;;;;;;;4.25;3.70;;;;;;;;;;5077447;28;20521;-83
2021/05/15 04:39:10;;;;;;;3.58;3.28;;;;;;;;;;5077400;28;20681;-82
2021/05/15 04:41:36;;;;;;;3.40;3.20;;;;;;;;;;5076841;28;20618;-83
2021/05/15 04:44:01;;;;;;;4.30;3.30;;;;;;;;;;5077335;28;20618;-83
2021/05/15 04:46:27;;;;;;;3.75;3.20;;;;;;;;;;5077088;28;20266;-82
2021/05/15 04:48:52;;;;;;;3.47;3.00;;;;;;;;;;5076897;28;20618;-82
2021/05/15 04:51:17;;;;;;;3.20;3.00;;;;;;;;;;5077390;28;20261;-82
2021/05/15 04:53:43;;;;;;;3.65;3.30;;;;;;;;;;5076882;28;20171;-83
2021/05/15 04:56:11;;;;;;;3.22;2.97;;;;;;;;;;5076556;28;20171;-83
2021/05/15 04:58:36;;;;;;;3.00;2.80;;;;;;;;;;5077355;28;20625;-83
2021/05/15 05:01:03;;;;;;;3.08;2.90;;;;;;;;;;5076699;28;20191;-83
2021/05/15 05:03:28;;;;;;;3.22;3.00;;;;;;;;;;5077264;28;20182;-83
2021/05/15 05:05:54;;;;;;;3.40;3.10;;;;;;;;;;5077000;28;20529;-83
2021/05/15 05:08:19;;;;;;;3.80;2.90;;;;;;;;;;5077294;28;20258;-84
2021/05/15 05:10:44;;;;;;;3.25;2.78;;;;;;;;;;5077484;28;20258;-84
2021/05/15 05:13:10;;;;;;;2.85;2.65;;;;;;;;;;5076864;28;20171;-83
2021/05/15 05:15:35;;;;;;;2.78;2.58;;;;;;;;;;5076529;28;20171;-83
2021/05/15 05:18:00;;;;;;;2.53;2.25;;;;;;;;;;5076104;28;20585;-83
2021/05/15 05:20:26;;;;;;;2.53;2.22;;;;;;;;;;5076605;28;20191;-83
2021/05/15 05:22:52;;;;;;;2.35;2.25;;;;;;;;;;5076199;28;20179;-83
2021/05/15 05:25:17;;;;;;;2.22;2.00;;;;;;;;;;5076810;28;20171;-83
2021/05/15 05:27:47;;;;;;;2.50;2.30;;;;;;;;;;5076128;28;20167;-83
2021/05/15 05:30:16;;;;;;;2.40;2.20;;;;;;;;;;5076196;28;20172;-83
2021/05/15 05:32:42;;;;;;;2.17;1.98;;;;;;;;;;5075919;28;20179;-83
2021/05/15 05:35:07;;;;;;;2.45;2.25;;;;;;;;;;5076009;28;20183;-83
2021/05/15 05:37:33;;;;;;;2.30;2.20;;;;;;;;;;5075897;28;20171;-83
2021/05/15 05:39:58;;;;;;;2.40;2.30;;;;;;;;;;5075815;28;20197;-83
2021/05/15 05:42:23;;;;;;;2.47;2.30;;;;;;;;;;5075798;28;20194;-83
2021/05/15 05:44:49;;;;;;;2.20;2.10;;;;;;;;;;5075780;28;20625;-83
2021/05/15 05:47:14;;;;;;;2.50;2.30;;;;;;;;;;5076014;28;20673;-83
2021/05/15 05:49:39;;;;;;;2.65;2.45;;;;;;;;;;5075878;28;20692;-84
2021/05/15 05:52:05;;;;;;;2.50;2.20;;;;;;;;;;5075571;28;20199;-83
2021/05/15 05:54:30;;;;;;;3.00;2.60;;;;;;;;;;5075879;28;20174;-83
2021/05/15 05:56:55;;;;;;;3.50;2.92;;;;;;;;;;5075458;28;20572;-83
2021/05/15 05:59:21;;;;;;;5.60;2.80;;;;;;;;;;5075998;28;20588;-83
2021/05/15 06:01:46;;;;;;;2.60;2.40;;;;;;;;;;5075377;28;20575;-83
2021/05/15 06:04:11;;;;;;;5.35;2.67;;;;;;;;;;5075745;28;20602;-83
2021/05/15 06:06:37;;;;;;;2.92;2.65;;;;;;;;;;5075596;28;20179;-83
2021/05/15 06:09:03;;;;;;;3.25;2.47;;;;;;;;;;5075326;28;20171;-84
2021/05/15 06:11:28;;;;;;;2.58;2.40;;;;;;;;;;5075554;28;20222;-84
2021/05/15 06:13:54;;;;;;;3.05;2.75;;;;;;;;;;5075359;28;20171;-84
2021/05/15 06:16:19;;;;;;;2.80;2.60;;;;;;;;;;5075085;28;20256;-84
2021/05/15 06:18:44;;;;;;;2.70;2.50;;;;;;;;;;5075232;28;20549;-84
2021/05/15 06:21:10;;;;;;;3.55;2.95;;;;;;;;;;5074946;28;20759;-84
2021/05/15 06:23:35;;;;;;;3.35;2.70;;;;;;;;;;5074671;28;20657;-84
2021/05/15 06:26:02;;;;;;;2.92;2.72;;;;;;;;;;5074890;28;20171;-84
2021/05/15 06:28:27;;;;;;;3.33;2.80;;;;;;;;;;5074975;28;20182;-84
2021/05/15 06:30:53;;;;;;;2.80;2.65;;;;;;;;;;5075056;28;20253;-83
2021/05/15 06:33:18;;;;;;;3.20;3.00;;;;;;;;;;5074997;28;20197;-81
2021/05/15 06:35:43;;;;;;;3.10;2.80;;;;;;;;;;5075207;28;20170;-81
2021/05/15 06:38:09;;;;;;;3.35;3.15;;;;;;;;;;5074861;28;20175;-83
2021/05/15 06:40:35;;;;;;;2.97;2.78;;;;;;;;;;5075044;28;20201;-83
2021/05/15 06:43:00;;;;;;;4.00;3.05;;;;;;;;;;5075077;28;20205;-83
2021/05/15 06:45:25;;;;;;;2.90;2.70;;;;;;;;;;5074825;28;20198;-83
2021/05/15 06:47:52;;;;;;;3.10;2.78;;;;;;;;;;5074432;28;20611;-84
2021/05/15 06:50:18;;;;;;;3.60;2.70;;;;;;;;;;5074684;28;20170;-84
2021/05/15 06:52:44;;;;;;;3.42;2.72;;;;;;;;;;5074322;28;20613;-83
2021/05/15 06:55:09;;;;;;;3.45;2.67;;;;;;;;;;5074245;28;20198;-83
2021/05/15 06:57:35;;;;;;;3.05;2.85;;;;;;;;;;5074845;28;20247;-84
2021/05/15 07:00:00;;;;;;;3.30;3.00;;;;;;;;;;5074458;28;20285;-85
2021/05/15 07:02:26;;;;;;;3.30;3.03;;;;;;;;;;5074708;28;20174;-85
2021/05/15 07:04:51;;;;;;;3.20;3.00;;;;;;;;;;5074969;28;20166;-85
2021/05/15 07:07:17;;;;;;;3.10;2.90;;;;;;;;;;5074382;28;20198;-84
2021/05/15 07:09:42;;;;;;;4.10;3.17;;;;;;;;;;5074140;28;20194;-84
2021/05/15 07:12:07;;;;;;;3.30;3.00;;;;;;;;;;5074274;28;20182;-83
2021/05/15 07:14:33;;;;;;;3.17;2.97;;;;;;;;;;5073913;28;20173;-83
2021/05/15 07:16:58;;;;;;;2.90;2.70;;;;;;;;;;5074480;28;20230;-83
2021/05/15 07:19:23;;;;;;;4.03;3.35;;;;;;;;;;5075043;28;20189;-83
2021/05/15 07:21:48;;;;;;;3.65;3.10;;;;;;;;;;5074495;28;20250;-83
2021/05/15 07:24:14;;;;;;;3.78;3.22;;;;;;;;;;5073843;28;20254;-83
2021/05/15 07:26:39;;;;;;;5.40;3.28;;;;;;;;;;5072072;28;20187;-83
2021/05/15 07:29:04;;;;;;;3.40;3.10;;;;;;;;;;5073763;28;20171;-83
2021/05/15 07:31:30;;;;;;;3.50;3.20;;;;;;;;;;5074456;28;20300;-84
2021/05/15 07:33:56;;;;;;;3.97;3.13;;;;;;;;;;5072994;28;20183;-83
2021/05/15 07:36:21;;;;;;;4.10;3.70;;;;;;;;;;5073084;28;20175;-83
2021/05/15 07:38:48;;;;;;;3.97;3.58;;;;;;;;;;5073622;28;20167;-83
2021/05/15 07:41:14;;;;;;;3.72;3.28;;;;;;;;;;5073944;28;20230;-83
2021/05/15 07:43:39;;;;;;;3.88;3.47;;;;;;;;;;5074220;28;20178;-83
2021/05/15 07:46:04;;;;;;;4.25;3.70;;;;;;;;;;5074115;28;20167;-83
2021/05/15 07:48:37;;;;;;;4.57;3.70;;;;;;;;;;5073825;28;20175;-83
2021/05/15 07:51:04;;;;;;;3.63;3.20;;;;;;;;;;5074043;28;20178;-83
2021/05/15 07:53:29;;;;;;;3.42;3.10;;;;;;;;;;5072386;28;20206;-83
2021/05/15 07:55:55;;;;;;;3.92;3.60;;;;;;;;;;5054352;28;20202;-84
2021/05/15 07:58:20;;;;;;;6.38;3.60;;;;;;;;;;5073216;28;20183;-82
2021/05/15 08:00:46;;;;;;;4.30;3.42;;;;;;;;;;5072223;28;20191;-84
2021/05/15 08:03:11;;;;;;;3.20;3.00;;;;;;;;;;5072941;28;20179;-84
2021/05/15 08:05:37;;;;;;;4.35;3.85;;;;;;;;;;5077188;28;20249;-83
2021/05/15 08:08:02;;;;;;;3.92;3.50;;;;;;;;;;5074145;28;20175;-82
2021/05/15 08:10:33;;;;;;;4.18;3.45;;;;;;;;;;5072387;28;20174;-82
2021/05/15 08:12:59;;;;;;;3.97;3.53;;;;;;;;;;5072736;28;20205;-82
2021/05/15 08:15:25;;;;;;;3.70;3.40;;;;;;;;;;5082753;28;20175;-82
2021/05/15 08:17:51;;;;;;;3.72;3.28;;;;;;;;;;5071808;28;20230;-83
2021/05/15 08:20:16;;;;;;;36.35;14.38;;;;;;;;;;5072245;28;20203;-83
2021/05/15 08:22:41;;;;;;;4.72;4.20;;;;;;;;;;5079665;28;20265;-83
2021/05/15 08:25:08;;;;;;;3.83;3.53;;;;;;;;;;5073665;28;20178;-83
2021/05/15 08:27:38;;;;;;;4.15;3.63;;;;;;;;;;5072141;28;20179;-84
2021/05/15 08:30:05;;;;;;;3.67;3.38;;;;;;;;;;5072417;28;20201;-83
2021/05/15 08:32:30;;;;;;;4.00;3.47;;;;;;;;;;5070750;28;20250;-84
2021/05/15 08:34:55;;;;;;;3.80;3.50;;;;;;;;;;5072186;28;20205;-84
2021/05/15 08:37:21;;;;;;;4.10;3.78;;;;;;;;;;5072215;28;20629;-84
2021/05/15 08:39:46;;;;;;;3.58;3.30;;;;;;;;;;5080981;28;20619;-83
2021/05/15 08:42:12;;;;;;;5.72;3.80;;;;;;;;;;5073220;28;20186;-83
2021/05/15 08:44:39;;;;;;;4.65;3.60;;;;;;;;;;5067766;28;20195;-83
2021/05/15 08:47:04;;;;;;;3.95;3.60;;;;;;;;;;5076215;28;20225;-82
2021/05/15 08:49:30;;;;;;;3.78;3.45;;;;;;;;;;5076403;28;20171;-82
2021/05/15 08:51:55;;;;;;;4.32;4.03;;;;;;;;;;5075622;28;20183;-82
2021/05/15 08:54:21;;;;;;;5.32;3.92;;;;;;;;;;5074205;28;20166;-82
2021/05/15 08:59:28;;;;;;;6.57;4.10;;;;;;;;;;5546200;23;21133;-81
2021/05/15 09:01:55;;;;;;;5.63;4.13;;;;;;;;;;4949112;29;20245;-82
2021/05/15 09:04:21;;;;;;;4.70;4.30;;;;;;;;;;4938836;29;20183;-82
2021/05/15 09:06:46;;;;;;;4.55;4.15;;;;;;;;;;4953752;29;20190;-81
2021/05/15 09:09:11;;;;;;;4.35;3.97;;;;;;;;;;4942110;29;20265;-81
2021/05/15 09:11:37;;;;;;;5.32;4.90;;;;;;;;;;4956916;29;20179;-81
2021/05/15 09:14:02;;;;;;;5.68;5.00;;;;;;;;;;4956977;29;20621;-82
2021/05/15 09:16:27;;;;;;;8.40;5.40;;;;;;;;;;4949531;29;20168;-82
2021/05/15 09:18:53;;;;;;;8.40;5.70;;;;;;;;;;4937577;29;20164;-82
2021/05/15 09:21:22;;;;;;;5.53;5.03;;;;;;;;;;4937820;29;20184;-82
2021/05/15 09:23:49;;;;;;;6.38;5.50;;;;;;;;;;4937541;29;20183;-81
2021/05/15 09:26:23;;;;;;;6.00;5.40;;;;;;;;;;4937189;29;20511;-81
2021/05/15 09:28:50;;;;;;;5.68;4.88;;;;;;;;;;4955840;29;20232;-81
2021/05/15 09:31:18;;;;;;;8.50;5.60;;;;;;;;;;4955638;29;20261;-82
2021/05/15 09:33:50;;;;;;;4.95;4.53;;;;;;;;;;4957098;29;20326;-82
2021/05/15 09:36:21;;;;;;;5.97;5.25;;;;;;;;;;4956796;29;20179;-81
2021/05/15 09:38:58;;;;;;;5.57;4.95;;;;;;;;;;4956730;29;20175;-82
2021/05/15 09:41:32;;;;;;;7.45;6.10;;;;;;;;;;4952364;29;20190;-82
2021/05/15 09:43:58;;;;;;;5.90;4.78;;;;;;;;;;4956775;29;20178;-84
2021/05/15 09:46:29;;;;;;;5.47;4.78;;;;;;;;;;4956474;29;20175;-82
2021/05/15 09:48:55;;;;;;;4.90;4.50;;;;;;;;;;4956585;29;20175;-81
2021/05/15 09:51:20;;;;;;;6.25;4.43;;;;;;;;;;4956192;29;20176;-81
2021/05/15 09:53:46;;;;;;;5.82;5.03;;;;;;;;;;4956122;29;20618;-81
2021/05/15 09:56:12;;;;;;;4.87;4.50;;;;;;;;;;4924140;29;20517;-82
2021/05/15 09:58:37;;;;;;;4.60;4.20;;;;;;;;;;4936105;29;20554;-81
2021/05/15 10:01:03;;;;;;;5.10;4.60;;;;;;;;;;4953357;29;20235;-81
2021/05/15 10:03:30;;;;;;;5.00;4.60;;;;;;;;;;4955884;29;20527;-81
2021/05/15 10:05:59;;;;;;;5.47;4.63;;;;;;;;;;4956032;29;20186;-81
2021/05/15 10:08:25;;;;;;;5.00;4.60;;;;;;;;;;4955464;29;20234;-82
2021/05/15 10:10:51;;;;;;;6.90;6.17;;;;;;;;;;4955235;29;20183;-81
2021/05/15 10:13:16;;;;;;;5.03;4.63;;;;;;;;;;4955848;29;20174;-81
2021/05/15 10:15:42;;;;;;;5.40;4.23;;;;;;;;;;4955973;29;20536;-81
2021/05/15 10:18:07;;;;;;;4.83;4.43;;;;;;;;;;4955748;29;20174;-82
2021/05/15 10:20:33;;;;;;;4.47;4.17;;;;;;;;;;4955726;29;20215;-84
2021/05/15 10:22:59;;;;;;;4.37;4.07;;;;;;;;;;4954769;29;20274;-81
2021/05/15 10:25:24;;;;;;;5.63;4.47;;;;;;;;;;4955477;29;20245;-82
2021/05/15 10:27:49;;;;;;;4.60;4.17;;;;;;;;;;4955611;29;20285;-82
2021/05/15 10:30:19;;;;;;;4.40;4.00;;;;;;;;;;4955184;29;20179;-82
2021/05/15 10:32:51;;;;;;;4.60;4.20;;;;;;;;;;4938157;29;20656;-83
2021/05/15 10:35:25;;;;;;;4.27;3.90;;;;;;;;;;4955785;29;20210;-82
2021/05/15 10:37:59;;;;;;;4.30;3.90;;;;;;;;;;4955535;29;20607;-81
2021/05/15 10:40:27;;;;;;;4.90;3.80;;;;;;;;;;4955092;29;20288;-82
2021/05/15 10:43:02;;;;;;;4.22;3.92;;;;;;;;;;4937587;29;20183;-82
2021/05/15 10:45:40;;;;;;;4.93;4.10;;;;;;;;;;4954818;29;20281;-82
2021/05/15 10:48:22;;;;;;;4.65;4.30;;;;;;;;;;4955493;29;20606;-83
2021/05/15 10:50:55;;;;;;;4.80;4.30;;;;;;;;;;4955108;29;20175;-82
2021/05/15 10:53:22;;;;;;;4.63;4.20;;;;;;;;;;4955039;29;20262;-81
2021/05/15 10:56:00;;;;;;;4.27;3.87;;;;;;;;;;4952389;29;20618;-81
2021/05/15 10:58:36;;;;;;;4.77;3.70;;;;;;;;;;4954808;29;20676;-81
2021/05/15 11:01:08;;;;;;;4.30;3.90;;;;;;;;;;4954829;29;20242;-81
2021/05/15 11:03:34;;;;;;;4.57;4.17;;;;;;;;;;4954812;29;20175;-81
2021/05/15 11:06:11;;;;;;;4.10;3.70;;;;;;;;;;4954730;29;20233;-81
2021/05/15 11:08:37;;;;;;;4.83;4.13;;;;;;;;;;4954766;28;20178;-81
2021/05/15 11:11:06;;;;;;;4.20;3.90;;;;;;;;;;4954484;29;20200;-82
2021/05/15 11:13:31;;;;;;;4.05;3.45;;;;;;;;;;4937518;29;20179;-82
2021/05/15 11:16:05;;;;;;;3.77;3.47;;;;;;;;;;4954715;29;20180;-82
2021/05/15 11:18:33;;;;;;;4.83;4.33;;;;;;;;;;4954936;29;20214;-82
2021/05/15 11:21:04;;;;;;;4.60;4.20;;;;;;;;;;4954800;29;20565;-82
2021/05/15 11:23:29;;;;;;;3.80;3.60;;;;;;;;;;4954127;29;20187;-82
2021/05/15 11:25:56;;;;;;;4.03;3.70;;;;;;;;;;4954715;29;20681;-82
2021/05/15 11:28:25;;;;;;;4.38;3.63;;;;;;;;;;4954695;29;20179;-82
2021/05/15 11:30:51;;;;;;;4.50;4.10;;;;;;;;;;4954795;29;20175;-81
2021/05/15 11:33:17;;;;;;;4.40;4.00;;;;;;;;;;4954497;29;20209;-82
2021/05/15 11:35:43;;;;;;;4.37;4.07;;;;;;;;;;4954441;29;20186;-82
2021/05/15 11:38:17;;;;;;;4.30;4.00;;;;;;;;;;4954881;29;20250;-83
2021/05/15 11:40:46;;;;;;;5.80;4.70;;;;;;;;;;4954452;29;20198;-82
2021/05/15 11:43:16;;;;;;;3.85;3.55;;;;;;;;;;4954292;29;20234;-82
2021/05/15 11:45:41;;;;;;;3.88;3.58;;;;;;;;;;4954857;29;20273;-83
2021/05/15 11:48:08;;;;;;;3.60;3.40;;;;;;;;;;4954418;29;20263;-83
2021/05/15 11:50:34;;;;;;;4.63;4.22;;;;;;;;;;4954011;29;20704;-83
2021/05/15 11:53:01;;;;;;;4.10;3.80;;;;;;;;;;4954350;29;20175;-83
2021/05/15 11:55:27;;;;;;;4.90;4.45;;;;;;;;;;4954307;29;20266;-83
2021/05/15 11:58:00;;;;;;;4.03;3.70;;;;;;;;;;4954472;29;20213;-83
2021/05/15 12:00:26;;;;;;;3.97;3.60;;;;;;;;;;4949290;29;20243;-82
2021/05/15 12:02:52;;;;;;;4.30;3.90;;;;;;;;;;4952482;29;20195;-83
2021/05/15 12:05:18;;;;;;;4.03;3.70;;;;;;;;;;4952862;29;20178;-82
2021/05/15 12:07:44;;;;;;;4.25;3.95;;;;;;;;;;4952730;29;20645;-82
2021/05/15 12:10:17;;;;;;;4.50;3.60;;;;;;;;;;4951217;29;20186;-82
2021/05/15 12:12:52;;;;;;;4.00;3.70;;;;;;;;;;4954028;29;20233;-82
2021/05/15 12:15:17;;;;;;;3.78;3.58;;;;;;;;;;4937004;29;20182;-82
2021/05/15 12:17:42;;;;;;;4.60;3.90;;;;;;;;;;4953854;29;20537;-82
2021/05/15 12:20:08;;;;;;;3.80;3.50;;;;;;;;;;4955103;28;20258;-82
2021/05/15 12:22:33;;;;;;;3.80;3.60;;;;;;;;;;4957505;29;20168;-82
2021/05/15 12:25:07;;;;;;;3.40;3.10;;;;;;;;;;4957707;29;20568;-82
2021/05/15 12:27:32;;;;;;;3.58;3.28;;;;;;;;;;4957747;29;20202;-83
2021/05/15 12:29:58;;;;;;;3.67;3.38;;;;;;;;;;4958187;29;20171;-83
2021/05/15 12:32:24;;;;;;;3.88;3.47;;;;;;;;;;4957779;29;20708;-83
2021/05/15 12:34:57;;;;;;;3.92;3.38;;;;;;;;;;4958101;29;20565;-83
2021/05/15 12:37:22;;;;;;;4.00;3.70;;;;;;;;;;4957753;29;20211;-83
2021/05/15 12:39:51;;;;;;;3.65;3.40;;;;;;;;;;4957799;29;20210;-83
2021/05/15 12:42:17;;;;;;;3.72;3.25;;;;;;;;;;4957352;29;20171;-83
2021/05/15 12:44:43;;;;;;;4.35;3.50;;;;;;;;;;4957526;29;20632;-83
2021/05/15 12:47:09;;;;;;;4.72;3.42;;;;;;;;;;4957605;29;20183;-84
2021/05/15 12:49:35;;;;;;;3.55;3.28;;;;;;;;;;4957321;29;20179;-84
2021/05/15 12:52:10;;;;;;;3.47;3.17;;;;;;;;;;4957436;29;20171;-84
2021/05/15 12:54:36;;;;;;;3.20;3.00;;;;;;;;;;4957476;29;20206;-83
2021/05/15 12:57:03;;;;;;;4.80;3.90;;;;;;;;;;4957138;29;20633;-83
2021/05/15 12:59:28;;;;;;;4.43;3.05;;;;;;;;;;4956562;29;20246;-84
2021/05/15 13:01:53;;;;;;;3.40;3.20;;;;;;;;;;4957265;29;20155;-84
2021/05/15 13:04:28;;;;;;;3.40;3.20;;;;;;;;;;4956621;29;20167;-84
2021/05/15 13:06:53;;;;;;;4.47;3.33;;;;;;;;;;4941948;29;20524;-82
2021/05/15 13:09:25;;;;;;;3.45;3.15;;;;;;;;;;4958445;29;20175;-82
2021/05/15 13:11:50;;;;;;;4.60;3.10;;;;;;;;;;4958669;29;20175;-82
2021/05/15 13:14:15;;;;;;;3.63;3.33;;;;;;;;;;4958764;29;20610;-83
2021/05/15 13:16:40;;;;;;;3.75;3.50;;;;;;;;;;4958495;29;20167;-83
2021/05/15 13:19:09;;;;;;;5.03;4.53;;;;;;;;;;4958334;29;20179;-84
2021/05/15 13:21:34;;;;;;;4.55;4.15;;;;;;;;;;4958399;29;20175;-83
2021/05/15 13:24:00;;;;;;;3.60;3.30;;;;;;;;;;4958206;29;20175;-83
2021/05/15 13:26:26;;;;;;;4.60;3.40;;;;;;;;;;4958577;29;20190;-83
2021/05/15 13:28:51;;;;;;;4.05;3.70;;;;;;;;;;4957897;29;20507;-84
2021/05/15 13:31:16;;;;;;;3.58;3.38;;;;;;;;;;4957338;28;20186;-83
2021/05/15 13:33:42;;;;;;;3.50;3.30;;;;;;;;;;4957912;29;20171;-83
2021/05/15 13:36:07;;;;;;;4.50;3.42;;;;;;;;;;4958469;29;20618;-84
2021/05/15 13:38:32;;;;;;;3.47;3.20;;;;;;;;;;4958067;29;20178;-83
2021/05/15 13:40:58;;;;;;;3.60;3.35;;;;;;;;;;4957673;29;20195;-84
2021/05/15 13:43:23;;;;;;;3.80;3.50;;;;;;;;;;4955602;29;20183;-82
2021/05/15 13:45:48;;;;;;;3.45;3.20;;;;;;;;;;4955478;29;20176;-82
2021/05/15 13:48:29;;;;;;;4.07;3.58;;;;;;;;;;4954913;29;20198;-82
2021/05/15 13:50:55;;;;;;;3.45;3.17;;;;;;;;;;4957785;29;20186;-82
2021/05/15 13:53:21;;;;;;;4.00;3.70;;;;;;;;;;4957636;29;20171;-82
2021/05/15 13:55:48;;;;;;;4.15;3.75;;;;;;;;;;4957740;29;20214;-82
2021/05/15 13:58:14;;;;;;;4.30;4.00;;;;;;;;;;4956878;29;20171;-82
2021/05/15 14:00:39;;;;;;;3.67;3.33;;;;;;;;;;4957133;29;20557;-81
2021/05/15 14:03:04;;;;;;;3.97;3.45;;;;;;;;;;4957222;29;20203;-82
2021/05/15 14:05:30;;;;;;;3.60;3.40;;;;;;;;;;4957166;29;20175;-82
2021/05/15 14:07:55;;;;;;;3.67;3.40;;;;;;;;;;4957128;29;20172;-82
2021/05/15 14:10:21;;;;;;;4.07;3.67;;;;;;;;;;4957278;29;20619;-82
2021/05/15 14:12:46;;;;;;;4.05;3.75;;;;;;;;;;4957126;29;20176;-82
2021/05/15 14:15:11;;;;;;;4.00;3.60;;;;;;;;;;4957204;29;20178;-81
2021/05/15 14:17:37;;;;;;;3.90;3.60;;;;;;;;;;4955962;29;20177;-83
2021/05/15 14:20:04;;;;;;;5.88;3.55;;;;;;;;;;4955145;29;20210;-83
2021/05/15 14:22:29;;;;;;;4.15;3.60;;;;;;;;;;4955629;29;20632;-83
2021/05/15 14:24:55;;;;;;;3.47;3.28;;;;;;;;;;4955350;29;20254;-83
2021/05/15 14:27:21;;;;;;;3.70;3.47;;;;;;;;;;4955771;29;20203;-83
2021/05/15 14:29:47;;;;;;;3.53;3.33;;;;;;;;;;4955268;29;20614;-85
2021/05/15 14:32:12;;;;;;;4.13;3.83;;;;;;;;;;4955059;29;20179;-83
2021/05/15 14:34:37;;;;;;;4.35;3.95;;;;;;;;;;4954910;29;20256;-83
2021/05/15 14:37:03;;;;;;;3.70;3.33;;;;;;;;;;4954820;29;20503;-83
2021/05/15 14:39:28;;;;;;;3.60;3.40;;;;;;;;;;4955943;29;20602;-83